DO-0002 weather

CLOSED Old Barahona Airport
Barahona, Barahona Province, Dominican Republic

Public forecast

Using degrees Celsius for public forecast. Weather courtesy of forecast.io.

Closest aviation weather report (METAR) to Old Barahona Airport

Report is more than 6 hours old.

Closest report is Maria Montez International Airport, 2.5 nm (4.7 km) NNW. Retrieved 2019/12/06 23:00 UTC (7 hours ago):

MDBH 062300Z 13012KT 9999 FEW020CB FEW021 SCT100 BKN300 27/22 Q1014 CB/E/NW/N

Closest aviation forecast (TAF) to Old Barahona Airport

Closest forecast is Maria Montez International Airport, 2.5 nm (4.7 km) NNW. Retrieved 2019-12-07 00:39 UTC (6 hours ago):

TAF MDBH 062200Z 0700/0724 13008KT 9999 FEW016CB SCT018 SCT080 PROB30 0702/0708 8000 -TSRA FEW014CB BKN016 BKN070 BECMG 0710/0712 27005KT